Time,TemperatureF,DewpointF,PressureIn,WindDirection,WindDirectionDegrees,WindSpeedMPH,WindSpeedGustMPH,Humidity,HourlyPrecipIn,Conditions,Clouds,dailyrainin,SoftwareType,DateUTC
2013-03-05 00:00:00,29.5,18.1,30.00,North,0,0.0,0.0,62,0.00,CLR,CLR,0.00,WeatherDisplay:10.37,2013-03-05 05:00:00,
2013-03-05 00:01:00,29.5,18.1,30.00,North,0,0.0,0.0,62,0.00,CLR,CLR,0.00,WeatherDisplay:10.37,2013-03-05 05:01:00,
2013-03-05 00:06:00,29.5,18.4,30.00,North,0,0.0,0.0,63,0.00,CLR,CLR,0.00,WeatherDisplay:10.37,2013-03-05 05:06:00,
2013-03-05 00:11:00,28.9,18.3,30.00,North,0,0.0,0.0,64,0.00,CLR,CLR,0.00,WeatherDisplay:10.37,2013-03-05 05:11:00,
2013-03-05 00:16:00,28.4,18.1,30.00,North,0,0.0,0.0,65,0.00,CLR,CLR,0.00,WeatherDisplay:10.37,2013-03-05 05:16:00,
2013-03-05 00:22:00,28.0,18.5,30.00,North,0,0.0,0.0,67,0.00,CLR,CLR,0.00,WeatherDisplay:10.37,2013-03-05 05:22:00,
2013-03-05 00:27:00,28.0,18.5,30.00,North,0,0.0,0.0,67,0.00,CLR,CLR,0.00,WeatherDisplay:10.37,2013-03-05 05:27:00,
2013-03-05 00:32:00,28.2,18.7,30.00,North,0,0.0,0.0,67,0.00,CLR,CLR,0.00,WeatherDisplay:10.37,2013-03-05 05:32:00,
2013-03-05 00:37:00,27.9,19.0,30.00,North,0,0.0,0.0,69,0.00,CLR,CLR,0.00,WeatherDisplay:10.37,2013-03-05 05:37:00,
2013-03-05 00:42:00,27.9,19.0,30.00,North,0,0.0,0.0,69,0.00,CLR,CLR,0.00,WeatherDisplay:10.37,2013-03-05 05:42:00,
2013-03-05 00:47:00,27.9,18.3,30.00,North,0,0.0,0.0,67,0.00,CLR,CLR,0.00,WeatherDisplay:10.37,2013-03-05 05:47:00,
2013-03-05 00:52:00,28.4,18.8,30.00,North,0,0.0,0.0,67,0.00,CLR,CLR,0.00,WeatherDisplay:10.37,2013-03-05 05:52:00,
2013-03-05 00:58:00,28.4,18.5,30.00,North,0,0.0,0.0,66,0.00,CLR,CLR,0.00,WeatherDisplay:10.37,2013-03-05 05:58:00,
2013-03-05 01:03:00,28.6,18.7,30.00,North,0,0.0,0.0,66,0.00,CLR,CLR,0.00,WeatherDisplay:10.37,2013-03-05 06:03:00,
2013-03-05 01:08:00,28.4,18.8,30.00,North,0,0.0,0.0,67,0.00,CLR,CLR,0.00,WeatherDisplay:10.37,2013-03-05 06:08:00,
2013-03-05 01:13:00,28.8,18.8,30.00,North,0,0.0,0.0,66,0.00,CLR,CLR,0.00,WeatherDisplay:10.37,2013-03-05 06:13:00,
2013-03-05 01:18:00,29.8,19.5,30.00,North,0,0.0,0.0,65,0.00,CLR,CLR,0.00,WeatherDisplay:10.37,2013-03-05 06:18:00,
2013-03-05 01:23:00,30.7,20.0,30.00,North,0,0.0,0.0,64,0.00,CLR,CLR,0.00,WeatherDisplay:10.37,2013-03-05 06:23:00,
2013-03-05 01:28:00,30.7,19.6,30.00,North,0,0.0,0.0,63,0.00,CLR,CLR,0.00,WeatherDisplay:10.37,2013-03-05 06:28:00,
2013-03-05 01:34:00,31.6,20.1,30.00,North,0,0.0,0.0,62,0.00,CLR,CLR,0.00,WeatherDisplay:10.37,2013-03-05 06:34:00,
2013-03-05 01:39:00,32.2,20.2,30.00,North,0,0.0,0.0,61,0.00,CLR,CLR,0.00,WeatherDisplay:10.37,2013-03-05 06:39:00,
2013-03-05 01:44:00,32.5,20.2,30.00,North,0,0.0,0.0,60,0.00,CLR,CLR,0.00,WeatherDisplay:10.37,2013-03-05 06:44:00,
2013-03-05 01:49:00,31.8,19.5,30.00,North,0,0.0,0.0,60,0.00,CLR,CLR,0.00,WeatherDisplay:10.37,2013-03-05 06:49:00,
2013-03-05 01:54:00,31.8,19.5,30.00,North,0,0.0,0.0,60,0.00,CLR,CLR,0.00,WeatherDisplay:10.37,2013-03-05 06:54:00,
2013-03-05 01:59:00,31.1,18.8,30.00,North,0,0.0,0.0,60,0.00,CLR,CLR,0.00,WeatherDisplay:10.37,2013-03-05 06:59:00,
2013-03-05 02:05:00,31.1,18.8,30.00,North,0,0.0,0.0,60,0.00,CLR,CLR,0.00,WeatherDisplay:10.37,2013-03-05 07:05:00,
2013-03-05 02:10:00,31.3,19.0,30.00,North,0,0.0,0.0,60,0.00,CLR,CLR,0.00,WeatherDisplay:10.37,2013-03-05 07:10:00,
2013-03-05 02:15:00,31.1,18.8,30.00,North,0,0.0,0.0,60,0.00,CLR,CLR,0.00,WeatherDisplay:10.37,2013-03-05 07:15:00,
2013-03-05 02:20:00,31.1,18.8,30.00,North,0,0.0,0.0,60,0.00,CLR,CLR,0.00,WeatherDisplay:10.37,2013-03-05 07:20:00,
2013-03-05 02:25:00,31.5,19.2,30.00,North,0,0.0,0.0,60,0.00,CLR,CLR,0.00,WeatherDisplay:10.37,2013-03-05 07:25:00,
2013-03-05 02:30:00,31.5,18.8,30.00,North,0,0.0,0.0,59,0.00,CLR,CLR,0.00,WeatherDisplay:10.37,2013-03-05 07:30:00,
2013-03-05 02:35:00,31.5,18.8,30.00,North,0,0.0,0.0,59,0.00,CLR,CLR,0.00,WeatherDisplay:10.37,2013-03-05 07:35:00,
2013-03-05 02:41:00,31.5,18.8,30.00,North,0,0.0,0.0,59,0.00,CLR,CLR,0.00,WeatherDisplay:10.37,2013-03-05 07:41:00,
2013-03-05 02:46:00,31.1,18.8,30.00,North,0,0.0,0.0,60,0.00,CLR,CLR,0.00,WeatherDisplay:10.37,2013-03-05 07:46:00,
2013-03-05 02:51:00,31.1,18.8,30.00,North,0,0.0,0.0,60,0.00,CLR,CLR,0.00,WeatherDisplay:10.37,2013-03-05 07:51:00,
2013-03-05 02:56:00,31.1,18.8,30.00,North,0,0.0,0.0,60,0.00,CLR,CLR,0.00,WeatherDisplay:10.37,2013-03-05 07:56:00,
2013-03-05 03:01:00,31.3,19.0,30.00,North,0,0.0,0.0,60,0.00,CLR,CLR,0.00,WeatherDisplay:10.37,2013-03-05 08:01:00,
2013-03-05 03:06:00,31.1,18.8,30.00,North,0,0.0,0.0,60,0.00,CLR,CLR,0.00,WeatherDisplay:10.37,2013-03-05 08:06:00,
2013-03-05 03:11:00,31.3,19.0,30.00,North,0,0.0,0.0,60,0.00,CLR,CLR,0.00,WeatherDisplay:10.37,2013-03-05 08:11:00,
2013-03-05 03:17:00,31.5,19.2,30.00,North,0,0.0,0.0,60,0.00,CLR,CLR,0.00,WeatherDisplay:10.37,2013-03-05 08:17:00,
2013-03-05 03:22:00,31.3,19.0,30.00,North,0,0.0,0.0,60,0.00,CLR,CLR,0.00,WeatherDisplay:10.37,2013-03-05 08:22:00,
2013-03-05 03:27:00,31.8,19.5,30.00,North,0,0.0,0.0,60,0.00,CLR,CLR,0.00,WeatherDisplay:10.37,2013-03-05 08:27:00,
2013-03-05 03:32:00,31.6,19.3,30.00,North,0,0.0,0.0,60,0.00,CLR,CLR,0.00,WeatherDisplay:10.37,2013-03-05 08:32:00,
2013-03-05 03:37:00,31.5,19.2,30.00,North,0,0.0,0.0,60,0.00,CLR,CLR,0.00,WeatherDisplay:10.37,2013-03-05 08:37:00,
2013-03-05 03:42:00,31.3,19.0,30.00,North,0,0.0,0.0,60,0.00,CLR,CLR,0.00,WeatherDisplay:10.37,2013-03-05 08:42:00,
2013-03-05 03:47:00,31.1,18.8,30.00,North,0,0.0,0.0,60,0.00,CLR,CLR,0.00,WeatherDisplay:10.37,2013-03-05 08:47:00,
2013-03-05 03:52:00,31.1,18.4,30.00,North,0,0.0,0.0,59,0.00,CLR,CLR,0.00,WeatherDisplay:10.37,2013-03-05 08:52:00,
2013-03-05 03:57:00,31.1,18.8,30.00,North,0,0.0,0.0,60,0.00,CLR,CLR,0.00,WeatherDisplay:10.37,2013-03-05 08:57:00,
2013-03-05 04:03:00,30.7,18.1,30.00,North,0,0.0,0.0,59,0.00,CLR,CLR,0.00,WeatherDisplay:10.37,2013-03-05 09:03:00,
2013-03-05 04:08:00,30.6,17.9,30.00,North,0,0.0,0.0,59,0.00,CLR,CLR,0.00,WeatherDisplay:10.37,2013-03-05 09:08:00,
2013-03-05 04:13:00,30.4,18.1,30.00,North,0,0.0,0.0,60,0.00,CLR,CLR,0.00,WeatherDisplay:10.37,2013-03-05 09:13:00,
2013-03-05 04:18:00,30.4,18.5,30.00,North,0,0.0,0.0,61,0.00,CLR,CLR,0.00,WeatherDisplay:10.37,2013-03-05 09:18:00,
2013-03-05 04:23:00,30.6,18.7,30.00,North,0,0.0,0.0,61,0.00,CLR,CLR,0.00,WeatherDisplay:10.37,2013-03-05 09:23:00,
2013-03-05 04:29:00,30.4,18.9,30.00,North,0,0.0,0.0,62,0.00,CLR,CLR,0.00,WeatherDisplay:10.37,2013-03-05 09:29:00,
2013-03-05 04:34:00,30.4,18.9,30.00,North,0,0.0,0.0,62,0.00,CLR,CLR,0.00,WeatherDisplay:10.37,2013-03-05 09:34:00,
2013-03-05 04:39:00,30.6,19.1,30.00,North,0,0.0,0.0,62,0.00,CLR,CLR,0.00,WeatherDisplay:10.37,2013-03-05 09:39:00,
2013-03-05 04:44:00,30.6,19.1,30.00,North,0,0.0,0.0,62,0.00,CLR,CLR,0.00,WeatherDisplay:10.37,2013-03-05 09:44:00,
2013-03-05 04:49:00,30.6,18.7,30.00,North,0,0.0,0.0,61,0.00,CLR,CLR,0.00,WeatherDisplay:10.37,2013-03-05 09:49:00,
2013-03-05 04:54:00,30.6,18.7,30.00,North,0,0.0,0.0,61,0.00,CLR,CLR,0.00,WeatherDisplay:10.37,2013-03-05 09:54:00,
2013-03-05 04:59:00,30.4,18.5,30.00,North,0,0.0,0.0,61,0.00,CLR,CLR,0.00,WeatherDisplay:10.37,2013-03-05 09:59:00,
2013-03-05 05:05:00,29.8,18.8,30.00,North,0,0.0,0.0,63,0.00,CLR,CLR,0.00,WeatherDisplay:10.37,2013-03-05 10:05:00,
2013-03-05 05:10:00,29.8,18.8,30.00,North,0,0.0,0.0,63,0.00,CLR,CLR,0.00,WeatherDisplay:10.37,2013-03-05 10:10:00,
2013-03-05 05:15:00,29.7,19.0,30.00,North,0,0.0,0.0,64,0.00,CLR,CLR,0.00,WeatherDisplay:10.37,2013-03-05 10:15:00,
2013-03-05 05:20:00,29.8,19.5,30.03,North,0,0.0,0.0,65,0.00,CLR,CLR,0.00,WeatherDisplay:10.37,2013-03-05 10:20:00,
2013-03-05 05:26:00,29.7,19.0,30.03,North,0,0.0,0.0,64,0.00,CLR,CLR,0.00,WeatherDisplay:10.37,2013-03-05 10:26:00,
2013-03-05 05:31:00,30.0,19.3,30.03,North,0,0.0,0.0,64,0.00,CLR,CLR,0.00,WeatherDisplay:10.37,2013-03-05 10:31:00,
2013-03-05 05:36:00,30.4,19.6,30.03,North,0,0.0,0.0,64,0.00,CLR,CLR,0.00,WeatherDisplay:10.37,2013-03-05 10:36:00,
2013-03-05 05:41:00,30.7,20.0,30.03,North,0,0.0,0.0,64,0.00,CLR,CLR,0.00,WeatherDisplay:10.37,2013-03-05 10:41:00,
2013-03-05 05:46:00,31.5,20.3,30.03,North,0,0.0,0.0,63,0.00,CLR,CLR,0.00,WeatherDisplay:10.37,2013-03-05 10:46:00,
2013-03-05 05:52:00,31.5,20.3,30.03,North,0,0.0,0.0,63,0.00,CLR,CLR,0.00,WeatherDisplay:10.37,2013-03-05 10:52:00,
2013-03-05 05:57:00,31.6,20.5,30.03,North,0,0.0,0.0,63,0.00,CLR,CLR,0.00,WeatherDisplay:10.37,2013-03-05 10:57:00,
2013-03-05 06:02:00,31.6,20.8,30.03,North,0,0.0,0.0,64,0.00,CLR,CLR,0.00,WeatherDisplay:10.37,2013-03-05 11:02:00,
2013-03-05 06:07:00,31.8,21.0,30.03,North,0,0.0,0.0,64,0.00,CLR,CLR,0.00,WeatherDisplay:10.37,2013-03-05 11:07:00,
2013-03-05 06:12:00,31.8,21.0,30.03,North,0,0.0,0.0,64,0.00,CLR,CLR,0.00,WeatherDisplay:10.37,2013-03-05 11:12:00,
2013-03-05 06:18:00,31.8,21.0,30.03,North,0,0.0,0.0,64,0.00,CLR,CLR,0.00,WeatherDisplay:10.37,2013-03-05 11:18:00,
2013-03-05 06:23:00,32.0,21.6,30.03,North,0,0.0,0.0,65,0.00,CLR,CLR,0.00,WeatherDisplay:10.37,2013-03-05 11:23:00,
2013-03-05 06:28:00,32.4,21.9,30.03,North,0,0.0,0.0,65,0.00,CLR,CLR,0.00,WeatherDisplay:10.37,2013-03-05 11:28:00,
2013-03-05 06:33:00,32.7,22.2,30.03,North,0,0.0,0.0,65,0.00,CLR,CLR,0.00,WeatherDisplay:10.37,2013-03-05 11:33:00,
2013-03-05 06:38:00,32.9,22.4,30.03,North,0,0.0,0.0,65,0.00,CLR,CLR,0.00,WeatherDisplay:10.37,2013-03-05 11:38:00,
2013-03-05 06:44:00,32.7,22.6,30.03,North,0,0.0,0.0,66,0.00,CLR,CLR,0.00,WeatherDisplay:10.37,2013-03-05 11:44:00,
2013-03-05 06:49:00,32.9,22.8,30.03,North,0,0.0,0.0,66,0.00,CLR,CLR,0.00,WeatherDisplay:10.37,2013-03-05 11:49:00,
2013-03-05 06:54:00,32.9,22.8,30.03,North,0,0.0,0.0,66,0.00,CLR,CLR,0.00,WeatherDisplay:10.37,2013-03-05 11:54:00,
2013-03-05 06:59:00,32.9,22.8,30.03,North,0,0.0,0.0,66,0.00,CLR,CLR,0.00,WeatherDisplay:10.37,2013-03-05 11:59:00,
2013-03-05 07:04:00,33.1,22.9,30.03,North,0,0.0,0.0,66,0.00,CLR,CLR,0.00,WeatherDisplay:10.37,2013-03-05 12:04:00,
2013-03-05 07:09:00,33.6,23.5,30.03,North,0,0.0,0.0,66,0.00,CLR,CLR,0.00,WeatherDisplay:10.37,2013-03-05 12:09:00,
2013-03-05 07:14:00,34.3,23.8,30.03,North,0,0.0,0.0,65,0.00,CLR,CLR,0.00,WeatherDisplay:10.37,2013-03-05 12:14:00,
2013-03-05 07:20:00,35.1,24.8,30.03,North,0,0.0,0.0,66,0.00,CLR,CLR,0.00,WeatherDisplay:10.37,2013-03-05 12:20:00,
2013-03-05 07:25:00,35.6,24.6,30.03,North,0,0.0,0.0,64,0.00,CLR,CLR,0.00,WeatherDisplay:10.37,2013-03-05 12:25:00,
2013-03-05 07:30:00,36.3,26.0,30.03,North,0,0.0,0.0,66,0.00,CLR,CLR,0.00,WeatherDisplay:10.37,2013-03-05 12:30:00,
2013-03-05 07:35:00,36.9,28.0,30.03,North,0,0.0,0.0,70,0.00,CLR,CLR,0.00,WeatherDisplay:10.37,2013-03-05 12:35:00,
2013-03-05 07:40:00,37.9,28.7,30.03,North,0,0.0,0.0,69,0.00,CLR,CLR,0.00,WeatherDisplay:10.37,2013-03-05 12:40:00,
2013-03-05 07:46:00,38.7,28.3,30.03,North,0,0.0,0.0,66,0.00,CLR,CLR,0.00,WeatherDisplay:10.37,2013-03-05 12:46:00,
2013-03-05 07:51:00,38.8,26.1,30.03,North,0,0.0,0.0,60,0.00,CLR,CLR,0.00,WeatherDisplay:10.37,2013-03-05 12:51:00,
2013-03-05 07:56:00,38.8,25.7,30.03,North,0,0.0,0.0,59,0.00,CLR,CLR,0.00,WeatherDisplay:10.37,2013-03-05 12:56:00,
2013-03-05 08:01:00,38.7,25.6,30.03,North,0,0.0,0.0,59,0.00,CLR,CLR,0.00,WeatherDisplay:10.37,2013-03-05 13:01:00,
2013-03-05 08:06:00,38.7,25.6,30.03,North,0,0.0,0.0,59,0.00,CLR,CLR,0.00,WeatherDisplay:10.37,2013-03-05 13:06:00,
2013-03-05 08:12:00,39.7,26.2,30.03,North,0,0.0,0.0,58,0.00,CLR,CLR,0.00,WeatherDisplay:10.37,2013-03-05 13:12:00,
2013-03-05 08:17:00,40.5,27.2,30.03,North,0,0.0,0.0,59,0.00,CLR,CLR,0.00,WeatherDisplay:10.37,2013-03-05 13:17:00,
2013-03-05 08:22:00,41.0,26.9,30.03,North,0,0.0,0.0,57,0.00,CLR,CLR,0.00,WeatherDisplay:10.37,2013-03-05 13:22:00,
2013-03-05 08:27:00,41.9,27.3,30.03,North,0,0.0,0.0,56,0.00,CLR,CLR,0.00,WeatherDisplay:10.37,2013-03-05 13:27:00,
2013-03-05 08:32:00,43.0,27.0,30.03,North,0,0.0,0.0,53,0.00,CLR,CLR,0.00,WeatherDisplay:10.37,2013-03-05 13:32:00,
2013-03-05 08:37:00,43.7,27.2,30.03,North,0,0.0,0.0,52,0.00,CLR,CLR,0.00,WeatherDisplay:10.37,2013-03-05 13:37:00,
2013-03-05 08:43:00,45.1,28.5,30.03,North,0,0.0,0.0,52,0.00,CLR,CLR,0.00,WeatherDisplay:10.37,2013-03-05 13:43:00,
2013-03-05 08:48:00,45.1,28.1,30.03,North,0,0.0,0.0,51,0.00,CLR,CLR,0.00,WeatherDisplay:10.37,2013-03-05 13:48:00,
2013-03-05 08:53:00,46.4,29.2,30.03,North,0,0.0,0.0,51,0.00,CLR,CLR,0.00,WeatherDisplay:10.37,2013-03-05 13:53:00,
2013-03-05 08:58:00,46.6,28.4,30.03,North,0,0.0,0.0,49,0.00,CLR,CLR,0.00,WeatherDisplay:10.37,2013-03-05 13:58:00,
2013-03-05 09:03:00,48.0,29.7,30.03,North,0,0.0,0.0,49,0.00,CLR,CLR,0.00,WeatherDisplay:10.37,2013-03-05 14:03:00,
2013-03-05 09:09:00,47.5,28.7,30.03,North,0,0.0,0.0,48,0.00,CLR,CLR,0.00,WeatherDisplay:10.37,2013-03-05 14:09:00,
2013-03-05 09:14:00,47.5,29.3,30.03,North,0,0.0,0.0,49,0.00,CLR,CLR,0.00,WeatherDisplay:10.37,2013-03-05 14:14:00,
2013-03-05 09:19:00,48.0,29.7,30.03,North,0,0.0,0.0,49,0.00,CLR,CLR,0.00,WeatherDisplay:10.37,2013-03-05 14:19:00,
2013-03-05 09:24:00,47.8,29.6,30.03,North,0,0.0,0.0,49,0.00,CLR,CLR,0.00,WeatherDisplay:10.37,2013-03-05 14:24:00,
2013-03-05 09:29:00,47.8,29.6,30.03,North,0,0.0,0.0,49,0.00,CLR,CLR,0.00,WeatherDisplay:10.37,2013-03-05 14:29:00,
2013-03-05 09:34:00,49.6,31.2,30.00,North,0,0.0,0.0,49,0.00,CLR,CLR,0.00,WeatherDisplay:10.37,2013-03-05 14:34:00,
2013-03-05 09:39:00,50.5,31.6,30.00,North,0,0.0,0.0,48,0.00,CLR,CLR,0.00,WeatherDisplay:10.37,2013-03-05 14:39:00,
2013-03-05 09:44:00,50.0,31.1,30.00,North,0,0.0,0.0,48,0.00,CLR,CLR,0.00,WeatherDisplay:10.37,2013-03-05 14:44:00,
2013-03-05 09:49:00,50.0,31.6,30.00,North,0,0.0,0.0,49,0.00,CLR,CLR,0.00,WeatherDisplay:10.37,2013-03-05 14:49:00,
2013-03-05 09:54:00,52.5,33.4,30.00,North,0,0.0,0.0,48,0.00,CLR,CLR,0.00,WeatherDisplay:10.37,2013-03-05 14:54:00,
2013-03-05 10:00:00,53.8,34.5,30.00,North,0,0.0,0.0,48,0.00,CLR,CLR,0.00,WeatherDisplay:10.37,2013-03-05 15:00:00,
2013-03-05 10:05:00,53.4,34.2,30.00,North,0,0.0,0.0,48,0.00,CLR,CLR,0.00,WeatherDisplay:10.37,2013-03-05 15:05:00,
2013-03-05 10:10:00,53.6,33.8,30.00,North,0,0.0,0.0,47,0.00,CLR,CLR,0.00,WeatherDisplay:10.37,2013-03-05 15:10:00,
2013-03-05 10:15:00,54.1,34.3,30.00,North,0,0.0,0.0,47,0.00,CLR,CLR,0.00,WeatherDisplay:10.37,2013-03-05 15:15:00,
2013-03-05 10:20:00,54.7,34.8,30.00,North,0,0.0,0.0,47,0.00,CLR,CLR,0.00,WeatherDisplay:10.37,2013-03-05 15:20:00,
2013-03-05 10:26:00,55.4,35.5,30.00,North,0,0.0,0.0,47,0.00,CLR,CLR,0.00,WeatherDisplay:10.37,2013-03-05 15:26:00,
2013-03-05 10:31:00,53.4,33.7,30.00,North,0,0.0,0.0,47,0.00,CLR,CLR,0.00,WeatherDisplay:10.37,2013-03-05 15:31:00,
2013-03-05 10:36:00,54.3,34.5,30.00,North,0,0.0,0.0,47,0.00,CLR,CLR,0.00,WeatherDisplay:10.37,2013-03-05 15:36:00,
2013-03-05 10:41:00,54.7,34.8,30.00,North,0,0.0,0.0,47,0.00,CLR,CLR,0.00,WeatherDisplay:10.37,2013-03-05 15:41:00,
2013-03-05 10:46:00,55.0,35.2,30.00,North,0,0.0,0.0,47,0.00,CLR,CLR,0.00,WeatherDisplay:10.37,2013-03-05 15:46:00,
2013-03-05 10:51:00,55.2,35.3,30.00,North,0,0.0,0.0,47,0.00,CLR,CLR,0.00,WeatherDisplay:10.37,2013-03-05 15:51:00,
2013-03-05 10:56:00,55.4,35.5,30.00,North,0,0.0,0.0,47,0.00,CLR,CLR,0.00,WeatherDisplay:10.37,2013-03-05 15:56:00,
2013-03-05 11:01:00,56.5,36.5,30.00,North,0,0.0,0.0,47,0.00,CLR,CLR,0.00,WeatherDisplay:10.37,2013-03-05 16:01:00,
2013-03-05 11:06:00,57.0,37.5,30.00,North,0,0.0,0.0,48,0.00,CLR,CLR,0.00,WeatherDisplay:10.37,2013-03-05 16:06:00,
2013-03-05 11:11:00,56.5,37.0,30.00,North,0,0.0,0.0,48,0.00,CLR,CLR,0.00,WeatherDisplay:10.37,2013-03-05 16:11:00,
2013-03-05 11:16:00,56.3,36.8,30.00,North,0,0.0,0.0,48,0.00,CLR,CLR,0.00,WeatherDisplay:10.37,2013-03-05 16:16:00,
2013-03-05 11:21:00,57.0,37.5,29.97,North,0,0.0,0.0,48,0.00,CLR,CLR,0.00,WeatherDisplay:10.37,2013-03-05 16:21:00,
2013-03-05 11:27:00,57.0,37.5,29.97,North,0,0.0,0.0,48,0.00,CLR,CLR,0.00,WeatherDisplay:10.37,2013-03-05 16:27:00,
2013-03-05 11:32:00,57.6,38.0,29.97,North,0,0.0,0.0,48,0.00,CLR,CLR,0.00,WeatherDisplay:10.37,2013-03-05 16:32:00,
2013-03-05 11:37:00,57.0,37.5,29.97,North,0,0.0,0.0,48,0.00,CLR,CLR,0.00,WeatherDisplay:10.37,2013-03-05 16:37:00,
2013-03-05 11:42:00,57.6,38.0,29.97,North,0,0.0,0.0,48,0.00,CLR,CLR,0.00,WeatherDisplay:10.37,2013-03-05 16:42:00,
2013-03-05 11:47:00,57.6,37.5,29.97,North,0,0.0,0.0,47,0.00,CLR,CLR,0.00,WeatherDisplay:10.37,2013-03-05 16:47:00,
2013-03-05 11:52:00,57.7,38.2,29.97,North,0,0.0,0.0,48,0.00,CLR,CLR,0.00,WeatherDisplay:10.37,2013-03-05 16:52:00,
2013-03-05 11:57:00,57.7,38.2,29.97,North,0,0.0,0.0,48,0.00,CLR,CLR,0.00,WeatherDisplay:10.37,2013-03-05 16:57:00,
2013-03-05 12:02:00,58.4,58.4,29.97,North,0,0.0,0.0,100,0.00,CLR,CLR,0.00,WeatherDisplay:10.37,2013-03-05 17:02:00,
2013-03-05 12:07:00,58.8,39.2,29.97,North,0,0.0,0.0,48,0.00,CLR,CLR,0.00,WeatherDisplay:10.37,2013-03-05 17:07:00,
2013-03-05 12:12:00,58.6,39.5,29.97,North,0,0.0,0.0,49,0.00,CLR,CLR,0.00,WeatherDisplay:10.37,2013-03-05 17:12:00,
2013-03-05 12:17:00,59.0,39.9,29.94,North,0,0.0,0.0,49,0.00,CLR,CLR,0.00,WeatherDisplay:10.37,2013-03-05 17:17:00,
2013-03-05 12:23:00,59.7,40.5,29.94,North,0,0.0,0.0,49,0.00,CLR,CLR,0.00,WeatherDisplay:10.37,2013-03-05 17:23:00,
2013-03-05 12:28:00,59.2,40.0,29.94,North,0,0.0,0.0,49,0.00,CLR,CLR,0.00,WeatherDisplay:10.37,2013-03-05 17:28:00,
2013-03-05 12:33:00,59.5,40.3,29.97,North,0,0.0,0.0,49,0.00,CLR,CLR,0.00,WeatherDisplay:10.37,2013-03-05 17:33:00,
2013-03-05 12:38:00,59.9,40.7,29.97,North,0,0.0,0.0,49,0.00,CLR,CLR,0.00,WeatherDisplay:10.37,2013-03-05 17:38:00,
2013-03-05 12:44:00,60.4,41.2,29.97,North,0,0.0,0.0,49,0.00,CLR,CLR,0.00,WeatherDisplay:10.37,2013-03-05 17:44:00,
2013-03-05 12:49:00,60.8,41.5,29.97,North,0,0.0,0.0,49,0.00,CLR,CLR,0.00,WeatherDisplay:10.37,2013-03-05 17:49:00,
2013-03-05 12:54:00,61.5,42.2,29.97,North,0,0.0,0.0,49,0.00,CLR,CLR,0.00,WeatherDisplay:10.37,2013-03-05 17:54:00,
2013-03-05 12:59:00,61.0,41.1,29.97,North,0,0.0,0.0,48,0.00,CLR,CLR,0.00,WeatherDisplay:10.37,2013-03-05 17:59:00,
2013-03-05 13:04:00,61.5,41.1,29.94,North,0,0.0,0.0,47,0.00,CLR,CLR,0.00,WeatherDisplay:10.37,2013-03-05 18:04:00,
2013-03-05 13:09:00,61.7,41.3,29.94,North,0,0.0,0.0,47,0.00,CLR,CLR,0.00,WeatherDisplay:10.37,2013-03-05 18:09:00,
2013-03-05 13:14:00,60.1,39.2,29.94,North,0,0.0,0.0,46,0.00,CLR,CLR,0.00,WeatherDisplay:10.37,2013-03-05 18:14:00,
2013-03-05 13:19:00,59.5,38.7,29.94,North,0,0.0,0.0,46,0.00,CLR,CLR,0.00,WeatherDisplay:10.37,2013-03-05 18:19:00,
2013-03-05 13:24:00,59.2,38.9,29.94,North,0,0.0,0.0,47,0.00,CLR,CLR,0.00,WeatherDisplay:10.37,2013-03-05 18:24:00,
2013-03-05 13:30:00,59.4,38.6,29.94,North,0,0.0,0.0,46,0.00,CLR,CLR,0.00,WeatherDisplay:10.37,2013-03-05 18:30:00,
2013-03-05 13:35:00,60.1,39.2,29.91,North,0,0.0,0.0,46,0.00,CLR,CLR,0.00,WeatherDisplay:10.37,2013-03-05 18:35:00,
2013-03-05 13:40:00,61.0,40.0,29.91,North,0,0.0,0.0,46,0.00,CLR,CLR,0.00,WeatherDisplay:10.37,2013-03-05 18:40:00,
2013-03-05 13:45:00,60.4,40.1,29.91,North,0,0.0,0.0,47,0.00,CLR,CLR,0.00,WeatherDisplay:10.37,2013-03-05 18:45:00,
2013-03-05 13:50:00,59.2,39.5,29.91,North,0,0.0,0.0,48,0.00,CLR,CLR,0.00,WeatherDisplay:10.37,2013-03-05 18:50:00,
2013-03-05 13:56:00,59.0,39.3,29.91,North,0,0.0,0.0,48,0.00,CLR,CLR,0.00,WeatherDisplay:10.37,2013-03-05 18:56:00,
2013-03-05 14:01:00,58.8,39.2,29.91,North,0,0.0,0.0,48,0.00,CLR,CLR,0.00,WeatherDisplay:10.37,2013-03-05 19:01:00,
2013-03-05 14:06:00,58.5,38.8,29.91,North,0,0.0,0.0,48,0.00,CLR,CLR,0.00,WeatherDisplay:10.37,2013-03-05 19:06:00,
2013-03-05 14:11:00,58.3,38.7,29.91,North,0,0.0,0.0,48,0.00,CLR,CLR,0.00,WeatherDisplay:10.37,2013-03-05 19:11:00,
2013-03-05 14:16:00,58.3,38.7,29.91,North,0,0.0,0.0,48,0.00,CLR,CLR,0.00,WeatherDisplay:10.37,2013-03-05 19:16:00,
2013-03-05 14:21:00,58.6,39.5,29.88,North,0,0.0,0.0,49,0.00,CLR,CLR,0.00,WeatherDisplay:10.37,2013-03-05 19:21:00,
2013-03-05 14:27:00,58.8,39.7,29.88,North,0,0.0,0.0,49,0.00,CLR,CLR,0.00,WeatherDisplay:10.37,2013-03-05 19:27:00,
2013-03-05 14:32:00,60.1,40.8,29.88,North,0,0.0,0.0,49,0.00,CLR,CLR,0.00,WeatherDisplay:10.37,2013-03-05 19:32:00,
2013-03-05 14:37:00,60.3,41.0,29.91,North,0,0.0,0.0,49,0.00,CLR,CLR,0.00,WeatherDisplay:10.37,2013-03-05 19:37:00,
2013-03-05 14:42:00,59.9,40.7,29.91,North,0,0.0,0.0,49,0.00,CLR,CLR,0.00,WeatherDisplay:10.37,2013-03-05 19:42:00,
2013-03-05 14:47:00,59.4,40.7,29.88,North,0,0.0,0.0,50,0.00,CLR,CLR,0.00,WeatherDisplay:10.37,2013-03-05 19:47:00,
2013-03-05 14:52:00,58.5,40.4,29.88,North,0,0.0,0.0,51,0.00,CLR,CLR,0.00,WeatherDisplay:10.37,2013-03-05 19:52:00,
2013-03-05 14:58:00,58.5,40.4,29.88,North,0,0.0,0.0,51,0.00,CLR,CLR,0.00,WeatherDisplay:10.37,2013-03-05 19:58:00,
2013-03-05 15:03:00,58.3,40.2,29.88,North,0,0.0,0.0,51,0.00,CLR,CLR,0.00,WeatherDisplay:10.37,2013-03-05 20:03:00,
2013-03-05 15:08:00,58.1,40.1,29.88,North,0,0.0,0.0,51,0.00,CLR,CLR,0.00,WeatherDisplay:10.37,2013-03-05 20:08:00,
2013-03-05 15:13:00,58.1,40.6,29.88,North,0,0.0,0.0,52,0.00,CLR,CLR,0.00,WeatherDisplay:10.37,2013-03-05 20:13:00,
2013-03-05 15:18:00,57.9,40.4,29.88,North,0,0.0,0.0,52,0.00,CLR,CLR,0.00,WeatherDisplay:10.37,2013-03-05 20:18:00,
2013-03-05 15:24:00,58.1,40.6,29.88,North,0,0.0,0.0,52,0.00,CLR,CLR,0.00,WeatherDisplay:10.37,2013-03-05 20:24:00,
2013-03-05 15:29:00,58.1,40.6,29.88,North,0,0.0,0.0,52,0.00,CLR,CLR,0.00,WeatherDisplay:10.37,2013-03-05 20:29:00,
2013-03-05 15:34:00,57.9,40.9,29.88,North,0,0.0,0.0,53,0.00,CLR,CLR,0.00,WeatherDisplay:10.37,2013-03-05 20:34:00,
2013-03-05 15:39:00,57.9,40.9,29.88,North,0,0.0,0.0,53,0.00,CLR,CLR,0.00,WeatherDisplay:10.37,2013-03-05 20:39:00,
2013-03-05 15:44:00,57.7,40.7,29.88,North,0,0.0,0.0,53,0.00,CLR,CLR,0.00,WeatherDisplay:10.37,2013-03-05 20:44:00,
2013-03-05 15:49:00,57.6,40.5,29.88,North,0,0.0,0.0,53,0.00,CLR,CLR,0.00,WeatherDisplay:10.37,2013-03-05 20:49:00,
2013-03-05 15:54:00,57.2,40.7,29.88,North,0,0.0,0.0,54,0.00,CLR,CLR,0.00,WeatherDisplay:10.37,2013-03-05 20:54:00,
2013-03-05 15:59:00,57.0,41.0,29.88,North,0,0.0,0.0,55,0.00,CLR,CLR,0.00,WeatherDisplay:10.37,2013-03-05 20:59:00,
2013-03-05 16:04:00,57.0,41.0,29.85,North,0,0.0,0.0,55,0.00,CLR,CLR,0.00,WeatherDisplay:10.37,2013-03-05 21:04:00,
2013-03-05 16:10:00,57.2,41.6,29.85,North,0,0.0,0.0,56,0.00,CLR,CLR,0.00,WeatherDisplay:10.37,2013-03-05 21:10:00,
2013-03-05 16:15:00,57.0,41.5,29.85,North,0,0.0,0.0,56,0.00,CLR,CLR,0.00,WeatherDisplay:10.37,2013-03-05 21:15:00,
2013-03-05 16:20:00,57.0,41.5,29.85,North,0,0.0,0.0,56,0.00,CLR,CLR,0.00,WeatherDisplay:10.37,2013-03-05 21:20:00,
2013-03-05 16:25:00,56.8,41.8,29.85,North,0,0.0,0.0,57,0.00,CLR,CLR,0.00,WeatherDisplay:10.37,2013-03-05 21:25:00,
2013-03-05 16:30:00,56.8,41.8,29.85,North,0,0.0,0.0,57,0.00,CLR,CLR,0.00,WeatherDisplay:10.37,2013-03-05 21:30:00,
2013-03-05 16:36:00,56.7,42.0,29.85,North,0,0.0,0.0,58,0.00,CLR,CLR,0.00,WeatherDisplay:10.37,2013-03-05 21:36:00,
2013-03-05 16:41:00,56.7,42.0,29.85,North,0,0.0,0.0,58,0.00,CLR,CLR,0.00,WeatherDisplay:10.37,2013-03-05 21:41:00,
2013-03-05 16:46:00,56.5,41.9,29.85,North,0,0.0,0.0,58,0.00,CLR,CLR,0.00,WeatherDisplay:10.37,2013-03-05 21:46:00,
2013-03-05 16:51:00,56.5,42.3,29.85,North,0,0.0,0.0,59,0.00,CLR,CLR,0.00,WeatherDisplay:10.37,2013-03-05 21:51:00,
2013-03-05 16:56:00,56.5,42.3,29.85,North,0,0.0,0.0,59,0.00,CLR,CLR,0.00,WeatherDisplay:10.37,2013-03-05 21:56:00,
2013-03-05 17:01:00,56.5,42.8,29.85,North,0,0.0,0.0,60,0.00,CLR,CLR,0.00,WeatherDisplay:10.37,2013-03-05 22:01:00,
2013-03-05 17:06:00,56.5,42.8,29.83,North,0,0.0,0.0,60,0.00,CLR,CLR,0.00,WeatherDisplay:10.37,2013-03-05 22:06:00,
2013-03-05 17:11:00,56.3,42.6,29.83,North,0,0.0,0.0,60,0.00,CLR,CLR,0.00,WeatherDisplay:10.37,2013-03-05 22:11:00,
2013-03-05 17:16:00,56.3,42.6,29.83,North,0,0.0,0.0,60,0.00,CLR,CLR,0.00,WeatherDisplay:10.37,2013-03-05 22:16:00,
2013-03-05 17:22:00,56.3,42.6,29.83,North,0,0.0,0.0,60,0.00,CLR,CLR,0.00,WeatherDisplay:10.37,2013-03-05 22:22:00,
2013-03-05 17:27:00,56.3,42.6,29.83,North,0,0.0,0.0,60,0.00,CLR,CLR,0.00,WeatherDisplay:10.37,2013-03-05 22:27:00,
2013-03-05 17:32:00,56.3,43.0,29.83,North,0,0.0,0.0,61,0.00,CLR,CLR,0.00,WeatherDisplay:10.37,2013-03-05 22:32:00,
2013-03-05 17:37:00,56.1,42.8,29.83,North,0,0.0,0.0,61,0.00,CLR,CLR,0.00,WeatherDisplay:10.37,2013-03-05 22:37:00,
2013-03-05 17:42:00,56.1,42.8,29.83,North,0,0.0,0.0,61,0.00,CLR,CLR,0.00,WeatherDisplay:10.37,2013-03-05 22:42:00,
2013-03-05 17:48:00,56.1,42.8,29.83,North,0,0.0,0.0,61,0.00,CLR,CLR,0.00,WeatherDisplay:10.37,2013-03-05 22:48:00,
2013-03-05 17:53:00,56.3,43.4,29.83,North,0,0.0,0.0,62,0.00,CLR,CLR,0.00,WeatherDisplay:10.37,2013-03-05 22:53:00,
2013-03-05 17:58:00,56.3,43.4,29.83,North,0,0.0,0.0,62,0.00,CLR,CLR,0.00,WeatherDisplay:10.37,2013-03-05 22:58:00,
2013-03-05 18:03:00,56.3,43.9,29.83,North,0,0.0,0.0,63,0.00,CLR,CLR,0.00,WeatherDisplay:10.37,2013-03-05 23:03:00,
2013-03-05 18:08:00,56.3,43.9,29.83,North,0,0.0,0.0,63,0.00,CLR,CLR,0.00,WeatherDisplay:10.37,2013-03-05 23:08:00,
2013-03-05 18:13:00,56.3,43.9,29.83,North,0,0.0,0.0,63,0.00,CLR,CLR,0.00,WeatherDisplay:10.37,2013-03-05 23:13:00,
2013-03-05 18:18:00,56.1,43.3,29.83,North,0,0.0,0.0,62,0.00,CLR,CLR,0.00,WeatherDisplay:10.37,2013-03-05 23:18:00,
2013-03-05 18:23:00,56.1,43.3,29.83,North,0,0.0,0.0,62,0.00,CLR,CLR,0.00,WeatherDisplay:10.37,2013-03-05 23:23:00,
2013-03-05 18:29:00,56.1,43.7,29.83,North,0,0.0,0.0,63,0.00,CLR,CLR,0.00,WeatherDisplay:10.37,2013-03-05 23:29:00,
2013-03-05 18:34:00,56.1,43.7,29.83,North,0,0.0,0.0,63,0.00,CLR,CLR,0.00,WeatherDisplay:10.37,2013-03-05 23:34:00,
2013-03-05 18:39:00,56.3,44.3,29.83,North,0,0.0,0.0,64,0.00,CLR,CLR,0.00,WeatherDisplay:10.37,2013-03-05 23:39:00,
2013-03-05 18:44:00,56.1,44.1,29.83,North,0,0.0,0.0,64,0.00,CLR,CLR,0.00,WeatherDisplay:10.37,2013-03-05 23:44:00,
2013-03-05 18:49:00,56.1,44.1,29.80,North,0,0.0,0.0,64,0.00,CLR,CLR,0.00,WeatherDisplay:10.37,2013-03-05 23:49:00,
2013-03-05 18:54:00,55.9,44.3,29.80,North,0,0.0,0.0,65,0.00,CLR,CLR,0.00,WeatherDisplay:10.37,2013-03-05 23:54:00,
2013-03-05 18:59:00,55.9,44.3,29.80,North,0,0.0,0.0,65,0.00,CLR,CLR,0.00,WeatherDisplay:10.37,2013-03-05 23:59:00,
2013-03-05 19:05:00,56.1,44.5,29.80,North,0,0.0,0.0,65,0.00,CLR,CLR,0.00,WeatherDisplay:10.37,2013-03-06 00:05:00,
2013-03-05 19:10:00,56.1,44.9,29.80,North,0,0.0,0.0,66,0.00,CLR,CLR,0.00,WeatherDisplay:10.37,2013-03-06 00:10:00,
2013-03-05 19:15:00,55.9,44.7,29.80,North,0,0.0,0.0,66,0.00,CLR,CLR,0.00,WeatherDisplay:10.37,2013-03-06 00:15:00,
2013-03-05 19:20:00,56.1,44.9,29.80,North,0,0.0,0.0,66,0.00,CLR,CLR,0.00,WeatherDisplay:10.37,2013-03-06 00:20:00,
2013-03-05 19:25:00,56.1,44.9,29.80,North,0,0.0,0.0,66,0.00,CLR,CLR,0.00,WeatherDisplay:10.37,2013-03-06 00:25:00,
2013-03-05 19:30:00,56.1,45.3,29.80,North,0,0.0,0.0,67,0.00,CLR,CLR,0.00,WeatherDisplay:10.37,2013-03-06 00:30:00,
2013-03-05 19:35:00,56.3,45.1,29.77,North,0,0.0,0.0,66,0.00,CLR,CLR,0.00,WeatherDisplay:10.37,2013-03-06 00:35:00,
2013-03-05 19:40:00,56.3,45.1,29.77,North,0,0.0,0.0,66,0.00,CLR,CLR,0.00,WeatherDisplay:10.37,2013-03-06 00:40:00,
2013-03-05 19:45:00,56.1,45.3,29.77,North,0,0.0,0.0,67,0.00,CLR,CLR,0.00,WeatherDisplay:10.37,2013-03-06 00:45:00,
2013-03-05 19:50:00,56.1,45.3,29.80,North,0,0.0,0.0,67,0.00,CLR,CLR,0.00,WeatherDisplay:10.37,2013-03-06 00:50:00,
2013-03-05 19:55:00,56.3,45.5,29.80,North,0,0.0,0.0,67,0.00,CLR,CLR,0.00,WeatherDisplay:10.37,2013-03-06 00:55:00,
2013-03-05 20:01:00,56.3,45.9,29.80,North,0,0.0,0.0,68,0.00,CLR,CLR,0.00,WeatherDisplay:10.37,2013-03-06 01:01:00,
2013-03-05 20:06:00,56.3,45.9,29.80,North,0,0.0,0.0,68,0.00,CLR,CLR,0.00,WeatherDisplay:10.37,2013-03-06 01:06:00,
2013-03-05 20:11:00,56.3,45.9,29.80,North,0,0.0,0.0,68,0.00,CLR,CLR,0.00,WeatherDisplay:10.37,2013-03-06 01:11:00,
2013-03-05 20:16:00,56.3,45.9,29.80,North,0,0.0,0.0,68,0.00,CLR,CLR,0.00,WeatherDisplay:10.37,2013-03-06 01:16:00,
2013-03-05 20:21:00,56.3,45.9,29.77,North,0,0.0,0.0,68,0.00,CLR,CLR,0.00,WeatherDisplay:10.37,2013-03-06 01:21:00,
2013-03-05 20:27:00,56.5,46.4,29.77,North,0,0.0,0.0,69,0.00,CLR,CLR,0.00,WeatherDisplay:10.37,2013-03-06 01:27:00,
2013-03-05 20:32:00,56.5,46.4,29.77,North,0,0.0,0.0,69,0.00,CLR,CLR,0.00,WeatherDisplay:10.37,2013-03-06 01:32:00,
2013-03-05 20:37:00,56.5,46.4,29.77,North,0,0.0,0.0,69,0.00,CLR,CLR,0.00,WeatherDisplay:10.37,2013-03-06 01:37:00,
2013-03-05 20:42:00,56.5,46.8,29.77,North,0,0.0,0.0,70,0.00,CLR,CLR,0.00,WeatherDisplay:10.37,2013-03-06 01:42:00,
2013-03-05 20:47:00,56.3,46.6,29.77,North,0,0.0,0.0,70,0.00,CLR,CLR,0.00,WeatherDisplay:10.37,2013-03-06 01:47:00,
2013-03-05 20:52:00,56.3,47.0,29.77,North,0,0.0,0.0,71,0.00,CLR,CLR,0.00,WeatherDisplay:10.37,2013-03-06 01:52:00,
2013-03-05 20:57:00,56.1,47.2,29.77,North,0,0.0,0.0,72,0.00,CLR,CLR,0.00,WeatherDisplay:10.37,2013-03-06 01:57:00,
2013-03-05 21:03:00,55.9,47.0,29.77,North,0,0.0,0.0,72,0.00,CLR,CLR,0.00,WeatherDisplay:10.37,2013-03-06 02:03:00,
2013-03-05 21:08:00,55.8,47.2,29.74,North,0,0.0,0.0,73,0.00,CLR,CLR,0.00,WeatherDisplay:10.37,2013-03-06 02:08:00,
2013-03-05 21:13:00,55.8,47.2,29.74,North,0,0.0,0.0,73,0.00,CLR,CLR,0.00,WeatherDisplay:10.37,2013-03-06 02:13:00,
2013-03-05 21:18:00,55.9,47.8,29.74,North,0,0.0,0.0,74,0.00,CLR,CLR,0.00,WeatherDisplay:10.37,2013-03-06 02:18:00,
2013-03-05 21:24:00,55.9,47.8,29.74,North,0,0.0,0.0,74,0.00,CLR,CLR,0.00,WeatherDisplay:10.37,2013-03-06 02:24:00,
2013-03-05 21:29:00,56.1,47.9,29.74,North,0,0.0,0.0,74,0.00,CLR,CLR,0.00,WeatherDisplay:10.37,2013-03-06 02:29:00,
2013-03-05 21:34:00,56.3,48.5,29.74,North,0,0.0,0.0,75,0.00,CLR,CLR,0.00,WeatherDisplay:10.37,2013-03-06 02:34:00,
2013-03-05 21:39:00,56.3,48.1,29.74,North,0,0.0,0.0,74,0.00,CLR,CLR,0.00,WeatherDisplay:10.37,2013-03-06 02:39:00,
2013-03-05 21:44:00,56.3,48.5,29.74,North,0,0.0,0.0,75,0.00,CLR,CLR,0.00,WeatherDisplay:10.37,2013-03-06 02:44:00,
2013-03-05 21:49:00,55.9,48.5,29.71,North,0,0.0,0.0,76,0.00,CLR,CLR,0.00,WeatherDisplay:10.37,2013-03-06 02:49:00,
2013-03-05 21:55:00,55.8,48.3,29.71,North,0,0.0,0.0,76,0.00,CLR,CLR,0.00,WeatherDisplay:10.37,2013-03-06 02:55:00,
2013-03-05 22:00:00,55.8,48.7,29.71,North,0,0.0,0.0,77,0.00,CLR,CLR,0.00,WeatherDisplay:10.37,2013-03-06 03:00:00,
2013-03-05 22:05:00,55.8,49.0,29.68,North,0,0.0,0.0,78,0.00,CLR,CLR,0.00,WeatherDisplay:10.37,2013-03-06 03:05:00,
2013-03-05 22:10:00,56.1,49.4,29.68,North,0,0.0,0.0,78,0.00,CLR,CLR,0.00,WeatherDisplay:10.37,2013-03-06 03:10:00,
2013-03-05 22:15:00,56.5,50.0,29.68,North,0,0.0,0.0,79,0.00,CLR,CLR,0.00,WeatherDisplay:10.37,2013-03-06 03:15:00,
2013-03-05 22:20:00,56.5,49.7,29.68,North,0,0.0,0.0,78,0.00,CLR,CLR,0.00,WeatherDisplay:10.37,2013-03-06 03:20:00,
2013-03-05 22:25:00,56.5,49.7,29.68,North,0,0.0,0.0,78,0.00,CLR,CLR,0.00,WeatherDisplay:10.37,2013-03-06 03:25:00,
2013-03-05 22:30:00,56.7,50.2,29.68,North,0,0.0,0.0,79,0.00,CLR,CLR,0.00,WeatherDisplay:10.37,2013-03-06 03:30:00,
2013-03-05 22:36:00,56.7,50.2,29.65,North,0,0.0,0.0,79,0.00,CLR,CLR,0.00,WeatherDisplay:10.37,2013-03-06 03:36:00,
2013-03-05 22:41:00,56.8,50.7,29.65,North,0,0.0,0.0,80,0.00,CLR,CLR,0.00,WeatherDisplay:10.37,2013-03-06 03:41:00,
2013-03-05 22:46:00,57.0,50.9,29.65,North,0,0.0,0.0,80,0.00,CLR,CLR,0.00,WeatherDisplay:10.37,2013-03-06 03:46:00,
2013-03-05 22:52:00,57.2,51.1,29.65,North,0,0.0,0.0,80,0.00,CLR,CLR,0.00,WeatherDisplay:10.37,2013-03-06 03:52:00,
2013-03-05 22:57:00,57.6,51.8,29.65,North,0,0.0,0.0,81,0.00,CLR,CLR,0.00,WeatherDisplay:10.37,2013-03-06 03:57:00,
2013-03-05 23:02:00,57.9,51.8,29.62,North,0,0.0,0.0,80,0.00,CLR,CLR,0.00,WeatherDisplay:10.37,2013-03-06 04:02:00,
2013-03-05 23:07:00,58.5,52.6,29.62,North,0,0.0,0.0,81,0.00,CLR,CLR,0.00,WeatherDisplay:10.37,2013-03-06 04:07:00,
2013-03-05 23:12:00,58.6,52.8,29.62,North,0,0.0,0.0,81,0.00,CLR,CLR,0.00,WeatherDisplay:10.37,2013-03-06 04:12:00,
2013-03-05 23:17:00,59.0,52.8,29.62,North,0,0.0,0.0,80,0.00,CLR,CLR,0.00,WeatherDisplay:10.37,2013-03-06 04:17:00,
2013-03-05 23:23:00,59.4,53.2,29.62,North,0,0.0,0.0,80,0.00,CLR,CLR,0.00,WeatherDisplay:10.37,2013-03-06 04:23:00,
2013-03-05 23:28:00,59.5,53.4,29.62,North,0,0.0,0.0,80,0.00,CLR,CLR,0.00,WeatherDisplay:10.37,2013-03-06 04:28:00,
2013-03-05 23:33:00,59.5,53.7,29.62,North,0,0.0,0.0,81,0.00,CLR,CLR,0.00,WeatherDisplay:10.37,2013-03-06 04:33:00,
2013-03-05 23:38:00,59.5,53.7,29.62,North,0,0.0,0.0,81,0.00,CLR,CLR,0.00,WeatherDisplay:10.37,2013-03-06 04:38:00,
2013-03-05 23:43:00,59.5,53.7,29.62,North,0,0.0,0.0,81,0.00,CLR,CLR,0.00,WeatherDisplay:10.37,2013-03-06 04:43:00,
2013-03-05 23:49:00,59.4,53.5,29.59,North,0,0.0,0.0,81,0.00,CLR,CLR,0.00,WeatherDisplay:10.37,2013-03-06 04:49:00,
2013-03-05 23:54:00,58.5,53.3,29.59,North,0,0.0,0.0,83,0.00,CLR,CLR,0.00,WeatherDisplay:10.37,2013-03-06 04:54:00,
2013-03-05 23:59:00,57.9,53.1,29.59,North,0,0.0,0.0,84,0.00,CLR,CLR,0.00,WeatherDisplay:10.37,2013-03-06 04:59:00,